sensor_id;sensor_type;location;lat;lon;timestamp;temperature;humidity
3684;DHT22;1858;48.716;9.648;2023-09-08T00:00:29;15.70;34.00
3684;DHT22;1858;48.716;9.648;2023-09-08T00:03:16;15.70;23.00
3684;DHT22;1858;48.716;9.648;2023-09-08T00:06:02;15.70;17.10
3684;DHT22;1858;48.716;9.648;2023-09-08T00:08:50;15.70;61.50
3684;DHT22;1858;48.716;9.648;2023-09-08T00:11:36;15.60;56.80
3684;DHT22;1858;48.716;9.648;2023-09-08T00:14:22;15.60;23.90
3684;DHT22;1858;48.716;9.648;2023-09-08T00:17:08;15.60;58.90
3684;DHT22;1858;48.716;9.648;2023-09-08T00:20:14;15.60;46.40
3684;DHT22;1858;48.716;9.648;2023-09-08T00:23:01;15.60;24.30
3684;DHT22;1858;48.716;9.648;2023-09-08T00:25:49;15.50;33.20
3684;DHT22;1858;48.716;9.648;2023-09-08T00:28:35;15.60;37.10
3684;DHT22;1858;48.716;9.648;2023-09-08T00:31:22;15.50;64.30
3684;DHT22;1858;48.716;9.648;2023-09-08T00:34:08;15.50;61.80
3684;DHT22;1858;48.716;9.648;2023-09-08T00:36:54;15.50;76.80
3684;DHT22;1858;48.716;9.648;2023-09-08T00:39:41;15.40;90.70
3684;DHT22;1858;48.716;9.648;2023-09-08T00:42:27;15.40;99.90
3684;DHT22;1858;48.716;9.648;2023-09-08T00:45:13;15.40;99.90
3684;DHT22;1858;48.716;9.648;2023-09-08T00:47:59;15.40;99.90
3684;DHT22;1858;48.716;9.648;2023-09-08T00:50:46;15.40;97.20
3684;DHT22;1858;48.716;9.648;2023-09-08T00:53:33;15.40;50.20
3684;DHT22;1858;48.716;9.648;2023-09-08T00:56:20;15.30;33.40
3684;DHT22;1858;48.716;9.648;2023-09-08T00:59:08;15.30;38.30
3684;DHT22;1858;48.716;9.648;2023-09-08T01:01:55;15.20;69.70
3684;DHT22;1858;48.716;9.648;2023-09-08T01:04:41;15.10;99.90
3684;DHT22;1858;48.716;9.648;2023-09-08T01:07:26;15.10;99.90
3684;DHT22;1858;48.716;9.648;2023-09-08T01:10:14;15.10;99.90
3684;DHT22;1858;48.716;9.648;2023-09-08T01:13:01;15.10;99.90
3684;DHT22;1858;48.716;9.648;2023-09-08T01:15:49;15.20;6.00
3684;DHT22;1858;48.716;9.648;2023-09-08T01:18:35;15.20;1.00
3684;DHT22;1858;48.716;9.648;2023-09-08T01:30:37;14.90;15.00
3684;DHT22;1858;48.716;9.648;2023-09-08T01:33:24;14.80;99.90
3684;DHT22;1858;48.716;9.648;2023-09-08T01:36:11;14.80;99.90
3684;DHT22;1858;48.716;9.648;2023-09-08T01:38:57;14.70;99.90
3684;DHT22;1858;48.716;9.648;2023-09-08T01:41:43;14.80;99.90
3684;DHT22;1858;48.716;9.648;2023-09-08T01:44:29;14.70;99.90
3684;DHT22;1858;48.716;9.648;2023-09-08T01:47:16;14.70;99.90
3684;DHT22;1858;48.716;9.648;2023-09-08T01:50:03;14.60;99.90
3684;DHT22;1858;48.716;9.648;2023-09-08T01:52:49;14.60;99.90
3684;DHT22;1858;48.716;9.648;2023-09-08T01:55:36;14.60;99.90
3684;DHT22;1858;48.716;9.648;2023-09-08T01:58:22;14.60;99.90
3684;DHT22;1858;48.716;9.648;2023-09-08T02:01:09;14.60;99.90
3684;DHT22;1858;48.716;9.648;2023-09-08T02:03:55;14.70;99.90
3684;DHT22;1858;48.716;9.648;2023-09-08T02:06:41;14.60;99.90
3684;DHT22;1858;48.716;9.648;2023-09-08T02:09:46;14.50;99.90
3684;DHT22;1858;48.716;9.648;2023-09-08T02:12:33;14.50;99.90
3684;DHT22;1858;48.716;9.648;2023-09-08T02:15:19;14.40;99.90
3684;DHT22;1858;48.716;9.648;2023-09-08T02:18:07;14.40;99.90
3684;DHT22;1858;48.716;9.648;2023-09-08T02:20:53;14.40;99.90
3684;DHT22;1858;48.716;9.648;2023-09-08T02:23:39;14.40;99.90
3684;DHT22;1858;48.716;9.648;2023-09-08T02:26:25;14.40;99.90
3684;DHT22;1858;48.716;9.648;2023-09-08T02:29:13;14.40;99.90
3684;DHT22;1858;48.716;9.648;2023-09-08T02:31:59;14.40;1.00
3684;DHT22;1858;48.716;9.648;2023-09-08T02:34:45;14.40;1.00
3684;DHT22;1858;48.716;9.648;2023-09-08T02:37:34;14.40;1.00
3684;DHT22;1858;48.716;9.648;2023-09-08T02:40:20;14.40;1.00
3684;DHT22;1858;48.716;9.648;2023-09-08T02:43:06;14.40;1.00
3684;DHT22;1858;48.716;9.648;2023-09-08T02:45:52;14.30;99.90
3684;DHT22;1858;48.716;9.648;2023-09-08T02:48:39;14.40;1.00
3684;DHT22;1858;48.716;9.648;2023-09-08T02:51:25;14.30;99.90
3684;DHT22;1858;48.716;9.648;2023-09-08T02:54:11;14.40;99.90
3684;DHT22;1858;48.716;9.648;2023-09-08T02:56:57;14.30;99.90
3684;DHT22;1858;48.716;9.648;2023-09-08T02:59:43;14.30;99.90
3684;DHT22;1858;48.716;9.648;2023-09-08T03:02:32;14.30;99.90
3684;DHT22;1858;48.716;9.648;2023-09-08T03:05:19;14.30;99.90
3684;DHT22;1858;48.716;9.648;2023-09-08T03:08:05;14.30;99.90
3684;DHT22;1858;48.716;9.648;2023-09-08T03:10:55;14.30;99.90
3684;DHT22;1858;48.716;9.648;2023-09-08T03:13:42;14.40;1.00
3684;DHT22;1858;48.716;9.648;2023-09-08T03:16:28;14.30;1.00
3684;DHT22;1858;48.716;9.648;2023-09-08T03:19:14;14.30;1.00
3684;DHT22;1858;48.716;9.648;2023-09-08T03:22:20;14.40;1.00
3684;DHT22;1858;48.716;9.648;2023-09-08T03:25:07;14.40;1.00
3684;DHT22;1858;48.716;9.648;2023-09-08T03:27:54;14.50;1.00
3684;DHT22;1858;48.716;9.648;2023-09-08T03:30:40;14.60;79.00
3684;DHT22;1858;48.716;9.648;2023-09-08T03:33:26;14.60;99.90
3684;DHT22;1858;48.716;9.648;2023-09-08T03:36:13;14.70;1.00
3684;DHT22;1858;48.716;9.648;2023-09-08T03:38:59;14.70;1.00
3684;DHT22;1858;48.716;9.648;2023-09-08T03:41:46;14.80;1.00
3684;DHT22;1858;48.716;9.648;2023-09-08T03:44:32;14.80;1.00
3684;DHT22;1858;48.716;9.648;2023-09-08T03:47:19;14.90;1.00
3684;DHT22;1858;48.716;9.648;2023-09-08T03:50:06;15.00;99.90
3684;DHT22;1858;48.716;9.648;2023-09-08T03:52:52;15.00;99.90
3684;DHT22;1858;48.716;9.648;2023-09-08T03:55:39;15.10;99.90
3684;DHT22;1858;48.716;9.648;2023-09-08T03:58:25;15.30;90.80
3684;DHT22;1858;48.716;9.648;2023-09-08T04:01:11;15.40;1.00
3684;DHT22;1858;48.716;9.648;2023-09-08T04:04:00;15.40;1.00
3684;DHT22;1858;48.716;9.648;2023-09-08T04:06:46;15.50;1.00
3684;DHT22;1858;48.716;9.648;2023-09-08T04:09:33;15.60;1.00
3684;DHT22;1858;48.716;9.648;2023-09-08T04:12:21;15.70;99.90
3684;DHT22;1858;48.716;9.648;2023-09-08T04:15:08;15.60;99.90
3684;DHT22;1858;48.716;9.648;2023-09-08T04:17:54;15.80;99.90
3684;DHT22;1858;48.716;9.648;2023-09-08T04:20:42;15.80;99.90
3684;DHT22;1858;48.716;9.648;2023-09-08T04:23:29;15.90;99.90
3684;DHT22;1858;48.716;9.648;2023-09-08T04:26:15;16.00;99.90
3684;DHT22;1858;48.716;9.648;2023-09-08T04:29:02;16.00;99.90
3684;DHT22;1858;48.716;9.648;2023-09-08T04:31:48;16.10;30.90
3684;DHT22;1858;48.716;9.648;2023-09-08T04:34:41;16.10;15.20
3684;DHT22;1858;48.716;9.648;2023-09-08T04:37:28;16.00;17.10
3684;DHT22;1858;48.716;9.648;2023-09-08T04:40:15;16.10;1.00
3684;DHT22;1858;48.716;9.648;2023-09-08T04:43:02;16.20;1.00
3684;DHT22;1858;48.716;9.648;2023-09-08T04:45:48;16.10;1.00
3684;DHT22;1858;48.716;9.648;2023-09-08T04:48:35;16.10;1.00
3684;DHT22;1858;48.716;9.648;2023-09-08T04:51:22;16.00;1.00
3684;DHT22;1858;48.716;9.648;2023-09-08T04:54:08;16.00;1.00
3684;DHT22;1858;48.716;9.648;2023-09-08T04:56:55;15.90;1.00
3684;DHT22;1858;48.716;9.648;2023-09-08T04:59:41;15.90;1.00
3684;DHT22;1858;48.716;9.648;2023-09-08T05:02:27;15.80;1.00
3684;DHT22;1858;48.716;9.648;2023-09-08T05:05:14;15.80;1.00
3684;DHT22;1858;48.716;9.648;2023-09-08T05:08:00;15.70;1.00
3684;DHT22;1858;48.716;9.648;2023-09-08T05:10:47;15.70;1.00
3684;DHT22;1858;48.716;9.648;2023-09-08T05:13:52;15.50;99.90
3684;DHT22;1858;48.716;9.648;2023-09-08T05:16:39;15.50;99.90
3684;DHT22;1858;48.716;9.648;2023-09-08T05:19:27;15.40;99.90
3684;DHT22;1858;48.716;9.648;2023-09-08T05:22:13;15.40;99.90
3684;DHT22;1858;48.716;9.648;2023-09-08T05:24:59;15.20;99.90
3684;DHT22;1858;48.716;9.648;2023-09-08T05:27:45;15.30;1.00
3684;DHT22;1858;48.716;9.648;2023-09-08T05:30:31;15.40;1.00
3684;DHT22;1858;48.716;9.648;2023-09-08T05:33:18;15.40;1.00
3684;DHT22;1858;48.716;9.648;2023-09-08T05:36:04;15.40;1.00
3684;DHT22;1858;48.716;9.648;2023-09-08T05:38:51;15.50;1.00
3684;DHT22;1858;48.716;9.648;2023-09-08T05:41:37;15.60;35.70
3684;DHT22;1858;48.716;9.648;2023-09-08T05:44:23;15.70;66.40
3684;DHT22;1858;48.716;9.648;2023-09-08T05:47:10;15.90;21.60
3684;DHT22;1858;48.716;9.648;2023-09-08T05:49:56;16.00;1.00
3684;DHT22;1858;48.716;9.648;2023-09-08T05:52:42;16.10;1.00
3684;DHT22;1858;48.716;9.648;2023-09-08T05:55:29;16.20;1.00
3684;DHT22;1858;48.716;9.648;2023-09-08T05:58:15;16.40;1.00
3684;DHT22;1858;48.716;9.648;2023-09-08T06:01:03;16.50;1.00
3684;DHT22;1858;48.716;9.648;2023-09-08T06:03:49;16.70;1.00
3684;DHT22;1858;48.716;9.648;2023-09-08T06:06:35;16.90;99.90
3684;DHT22;1858;48.716;9.648;2023-09-08T06:09:22;17.00;99.90
3684;DHT22;1858;48.716;9.648;2023-09-08T06:12:08;17.10;99.90
3684;DHT22;1858;48.716;9.648;2023-09-08T06:14:54;17.20;99.90
3684;DHT22;1858;48.716;9.648;2023-09-08T06:17:40;17.30;99.90
3684;DHT22;1858;48.716;9.648;2023-09-08T06:20:27;17.50;99.90
3684;DHT22;1858;48.716;9.648;2023-09-08T06:23:14;17.60;99.90
3684;DHT22;1858;48.716;9.648;2023-09-08T06:26:00;17.70;99.90
3684;DHT22;1858;48.716;9.648;2023-09-08T06:28:47;17.90;99.90
3684;DHT22;1858;48.716;9.648;2023-09-08T06:31:33;18.00;38.40
3684;DHT22;1858;48.716;9.648;2023-09-08T06:34:20;18.20;33.10
3684;DHT22;1858;48.716;9.648;2023-09-08T06:37:08;18.30;1.00
3684;DHT22;1858;48.716;9.648;2023-09-08T06:39:55;18.40;1.00
3684;DHT22;1858;48.716;9.648;2023-09-08T06:42:41;18.60;1.00
3684;DHT22;1858;48.716;9.648;2023-09-08T06:45:28;18.70;1.00
3684;DHT22;1858;48.716;9.648;2023-09-08T06:48:14;18.90;1.00
3684;DHT22;1858;48.716;9.648;2023-09-08T06:51:00;18.80;1.00
3684;DHT22;1858;48.716;9.648;2023-09-08T06:53:55;19.00;1.00
3684;DHT22;1858;48.716;9.648;2023-09-08T06:56:43;19.20;1.00
3684;DHT22;1858;48.716;9.648;2023-09-08T06:59:29;19.40;1.00
3684;DHT22;1858;48.716;9.648;2023-09-08T07:02:15;19.60;99.90
3684;DHT22;1858;48.716;9.648;2023-09-08T07:05:02;19.70;99.90
3684;DHT22;1858;48.716;9.648;2023-09-08T07:07:50;19.90;99.90
3684;DHT22;1858;48.716;9.648;2023-09-08T07:10:36;19.90;99.90
3684;DHT22;1858;48.716;9.648;2023-09-08T07:13:22;20.10;99.90
3684;DHT22;1858;48.716;9.648;2023-09-08T07:16:08;20.60;99.90
3684;DHT22;1858;48.716;9.648;2023-09-08T07:18:54;21.10;99.90
3684;DHT22;1858;48.716;9.648;2023-09-08T07:21:40;21.40;99.90
3684;DHT22;1858;48.716;9.648;2023-09-08T07:24:25;21.40;99.90
3684;DHT22;1858;48.716;9.648;2023-09-08T07:30:17;21.50;99.90
3684;DHT22;1858;48.716;9.648;2023-09-08T07:33:03;21.60;99.90
3684;DHT22;1858;48.716;9.648;2023-09-08T07:35:50;21.70;99.90
3684;DHT22;1858;48.716;9.648;2023-09-08T07:38:36;21.80;99.90
3684;DHT22;1858;48.716;9.648;2023-09-08T07:41:22;21.90;99.90
3684;DHT22;1858;48.716;9.648;2023-09-08T07:44:08;22.10;99.90
3684;DHT22;1858;48.716;9.648;2023-09-08T07:46:55;22.40;99.90
3684;DHT22;1858;48.716;9.648;2023-09-08T07:49:45;23.30;99.90
3684;DHT22;1858;48.716;9.648;2023-09-08T07:52:48;24.90;5.60
3684;DHT22;1858;48.716;9.648;2023-09-08T07:55:35;25.80;1.00
3684;DHT22;1858;48.716;9.648;2023-09-08T07:58:23;25.90;1.00
3684;DHT22;1858;48.716;9.648;2023-09-08T08:01:09;26.50;1.00
3684;DHT22;1858;48.716;9.648;2023-09-08T08:03:55;27.70;1.00
3684;DHT22;1858;48.716;9.648;2023-09-08T08:06:42;28.30;1.00
3684;DHT22;1858;48.716;9.648;2023-09-08T08:09:27;30.30;1.00
3684;DHT22;1858;48.716;9.648;2023-09-08T08:12:13;32.60;1.00
3684;DHT22;1858;48.716;9.648;2023-09-08T08:14:59;34.60;99.90
3684;DHT22;1858;48.716;9.648;2023-09-08T08:17:45;35.90;99.90
3684;DHT22;1858;48.716;9.648;2023-09-08T08:20:32;37.60;99.90
3684;DHT22;1858;48.716;9.648;2023-09-08T08:23:20;39.00;99.90
3684;DHT22;1858;48.716;9.648;2023-09-08T08:26:06;39.80;99.90
3684;DHT22;1858;48.716;9.648;2023-09-08T08:28:53;39.10;99.90
3684;DHT22;1858;48.716;9.648;2023-09-08T08:31:58;38.80;99.90
3684;DHT22;1858;48.716;9.648;2023-09-08T08:34:45;40.20;99.90
3684;DHT22;1858;48.716;9.648;2023-09-08T08:37:31;41.50;99.90
3684;DHT22;1858;48.716;9.648;2023-09-08T08:40:18;42.50;99.90
3684;DHT22;1858;48.716;9.648;2023-09-08T08:43:05;43.50;99.90
3684;DHT22;1858;48.716;9.648;2023-09-08T08:45:53;44.50;99.90
3684;DHT22;1858;48.716;9.648;2023-09-08T08:48:40;45.40;99.90
3684;DHT22;1858;48.716;9.648;2023-09-08T08:51:30;46.10;99.90
3684;DHT22;1858;48.716;9.648;2023-09-08T08:54:17;46.40;99.90
3684;DHT22;1858;48.716;9.648;2023-09-08T08:57:04;46.80;93.50
3684;DHT22;1858;48.716;9.648;2023-09-08T08:59:51;47.20;88.50
3684;DHT22;1858;48.716;9.648;2023-09-08T09:02:41;47.80;78.20
3684;DHT22;1858;48.716;9.648;2023-09-08T09:05:28;47.80;70.20
3684;DHT22;1858;48.716;9.648;2023-09-08T09:08:16;48.20;63.00
3684;DHT22;1858;48.716;9.648;2023-09-08T09:11:03;48.60;63.60
3684;DHT22;1858;48.716;9.648;2023-09-08T09:13:50;49.00;71.50
3684;DHT22;1858;48.716;9.648;2023-09-08T09:16:41;49.20;52.40
3684;DHT22;1858;48.716;9.648;2023-09-08T09:19:28;49.50;59.80
3684;DHT22;1858;48.716;9.648;2023-09-08T09:22:21;49.60;44.80
3684;DHT22;1858;48.716;9.648;2023-09-08T09:25:08;49.80;32.20
3684;DHT22;1858;48.716;9.648;2023-09-08T09:28:01;50.00;36.10
3684;DHT22;1858;48.716;9.648;2023-09-08T09:30:52;50.00;36.60
3684;DHT22;1858;48.716;9.648;2023-09-08T09:33:40;50.10;26.40
3684;DHT22;1858;48.716;9.648;2023-09-08T09:39:12;50.20;12.30
3684;DHT22;1858;48.716;9.648;2023-09-08T09:41:59;50.20;26.10
3684;DHT22;1858;48.716;9.648;2023-09-08T09:44:47;50.30;13.10
3684;DHT22;1858;48.716;9.648;2023-09-08T09:47:35;50.40;21.90
3684;DHT22;1858;48.716;9.648;2023-09-08T09:50:36;50.70;22.70
3684;DHT22;1858;48.716;9.648;2023-09-08T09:53:20;50.70;19.30
3684;DHT22;1858;48.716;9.648;2023-09-08T09:56:07;50.70;9.80
3684;DHT22;1858;48.716;9.648;2023-09-08T09:58:55;50.70;8.00
3684;DHT22;1858;48.716;9.648;2023-09-08T10:01:42;50.70;8.00
3684;DHT22;1858;48.716;9.648;2023-09-08T10:04:29;50.30;16.70
3684;DHT22;1858;48.716;9.648;2023-09-08T10:07:16;50.10;16.40
3684;DHT22;1858;48.716;9.648;2023-09-08T10:10:04;49.90;8.20
3684;DHT22;1858;48.716;9.648;2023-09-08T10:13:10;49.80;18.20
3684;DHT22;1858;48.716;9.648;2023-09-08T10:15:58;49.80;13.10
3684;DHT22;1858;48.716;9.648;2023-09-08T10:18:47;49.90;11.60
3684;DHT22;1858;48.716;9.648;2023-09-08T10:21:35;49.80;17.10
3684;DHT22;1858;48.716;9.648;2023-09-08T10:24:24;49.50;15.40
3684;DHT22;1858;48.716;9.648;2023-09-08T10:27:12;49.20;19.20
3684;DHT22;1858;48.716;9.648;2023-09-08T10:30:00;49.20;19.20
3684;DHT22;1858;48.716;9.648;2023-09-08T10:32:50;49.20;16.70
3684;DHT22;1858;48.716;9.648;2023-09-08T10:35:39;48.90;18.80
3684;DHT22;1858;48.716;9.648;2023-09-08T10:38:45;48.90;15.60
3684;DHT22;1858;48.716;9.648;2023-09-08T10:41:33;48.80;18.10
3684;DHT22;1858;48.716;9.648;2023-09-08T10:44:21;48.70;20.30
3684;DHT22;1858;48.716;9.648;2023-09-08T10:47:07;48.50;22.30
3684;DHT22;1858;48.716;9.648;2023-09-08T10:49:53;48.60;17.10
3684;DHT22;1858;48.716;9.648;2023-09-08T10:52:41;48.30;25.20
3684;DHT22;1858;48.716;9.648;2023-09-08T10:55:36;47.90;26.20
3684;DHT22;1858;48.716;9.648;2023-09-08T10:58:33;48.00;24.40
3684;DHT22;1858;48.716;9.648;2023-09-08T11:01:22;48.00;25.40
3684;DHT22;1858;48.716;9.648;2023-09-08T11:04:10;48.00;23.40
3684;DHT22;1858;48.716;9.648;2023-09-08T11:06:58;47.70;23.60
3684;DHT22;1858;48.716;9.648;2023-09-08T11:09:45;47.70;28.90
3684;DHT22;1858;48.716;9.648;2023-09-08T11:12:32;47.70;34.90
3684;DHT22;1858;48.716;9.648;2023-09-08T11:15:20;47.50;32.90
3684;DHT22;1858;48.716;9.648;2023-09-08T11:18:07;47.30;27.70
3684;DHT22;1858;48.716;9.648;2023-09-08T11:21:06;47.30;36.50
3684;DHT22;1858;48.716;9.648;2023-09-08T11:23:53;46.90;39.00
3684;DHT22;1858;48.716;9.648;2023-09-08T11:26:41;46.60;45.40
3684;DHT22;1858;48.716;9.648;2023-09-08T11:29:29;46.30;41.90
3684;DHT22;1858;48.716;9.648;2023-09-08T11:32:16;46.40;46.40
3684;DHT22;1858;48.716;9.648;2023-09-08T11:35:07;46.30;37.50
3684;DHT22;1858;48.716;9.648;2023-09-08T11:37:58;46.40;44.50
3684;DHT22;1858;48.716;9.648;2023-09-08T11:40:43;46.20;49.30
3684;DHT22;1858;48.716;9.648;2023-09-08T11:43:29;46.00;50.90
3684;DHT22;1858;48.716;9.648;2023-09-08T11:46:17;45.90;47.70
3684;DHT22;1858;48.716;9.648;2023-09-08T11:49:04;45.80;54.60
3684;DHT22;1858;48.716;9.648;2023-09-08T11:51:51;45.40;45.20
3684;DHT22;1858;48.716;9.648;2023-09-08T11:54:37;44.70;63.60
3684;DHT22;1858;48.716;9.648;2023-09-08T11:57:24;44.00;71.10
3684;DHT22;1858;48.716;9.648;2023-09-08T12:00:11;43.00;78.10
3684;DHT22;1858;48.716;9.648;2023-09-08T12:06:19;41.70;99.90
3684;DHT22;1858;48.716;9.648;2023-09-08T12:09:07;40.60;99.90
3684;DHT22;1858;48.716;9.648;2023-09-08T12:11:54;39.80;99.90
3684;DHT22;1858;48.716;9.648;2023-09-08T12:14:42;38.90;99.90
3684;DHT22;1858;48.716;9.648;2023-09-08T12:17:28;38.30;99.90
3684;DHT22;1858;48.716;9.648;2023-09-08T12:20:15;37.80;99.90
3684;DHT22;1858;48.716;9.648;2023-09-08T12:23:04;37.50;99.90
3684;DHT22;1858;48.716;9.648;2023-09-08T12:25:52;37.10;99.90
3684;DHT22;1858;48.716;9.648;2023-09-08T12:28:38;36.60;99.90
3684;DHT22;1858;48.716;9.648;2023-09-08T12:31:25;36.30;99.90
3684;DHT22;1858;48.716;9.648;2023-09-08T12:34:11;36.00;99.90
3684;DHT22;1858;48.716;9.648;2023-09-08T12:36:59;35.70;99.90
3684;DHT22;1858;48.716;9.648;2023-09-08T12:39:45;35.40;99.90
3684;DHT22;1858;48.716;9.648;2023-09-08T12:42:31;35.30;99.90
3684;DHT22;1858;48.716;9.648;2023-09-08T12:45:20;35.00;99.90
3684;DHT22;1858;48.716;9.648;2023-09-08T12:48:07;34.70;99.90
3684;DHT22;1858;48.716;9.648;2023-09-08T12:50:54;34.50;99.90
3684;DHT22;1858;48.716;9.648;2023-09-08T12:53:40;34.30;99.90
3684;DHT22;1858;48.716;9.648;2023-09-08T12:56:26;34.10;99.90
3684;DHT22;1858;48.716;9.648;2023-09-08T12:59:16;34.10;99.90
3684;DHT22;1858;48.716;9.648;2023-09-08T13:02:05;34.00;99.90
3684;DHT22;1858;48.716;9.648;2023-09-08T13:04:53;33.90;99.90
3684;DHT22;1858;48.716;9.648;2023-09-08T13:07:41;33.70;99.90
3684;DHT22;1858;48.716;9.648;2023-09-08T13:10:28;33.60;99.90
3684;DHT22;1858;48.716;9.648;2023-09-08T13:13:14;33.50;99.90
3684;DHT22;1858;48.716;9.648;2023-09-08T13:16:01;33.40;99.90
3684;DHT22;1858;48.716;9.648;2023-09-08T13:18:47;33.30;99.90
3684;DHT22;1858;48.716;9.648;2023-09-08T13:21:34;33.20;99.90
3684;DHT22;1858;48.716;9.648;2023-09-08T13:24:21;33.10;99.90
3684;DHT22;1858;48.716;9.648;2023-09-08T13:27:07;33.00;99.90
3684;DHT22;1858;48.716;9.648;2023-09-08T13:29:54;33.00;99.90
3684;DHT22;1858;48.716;9.648;2023-09-08T13:32:41;32.90;99.90
3684;DHT22;1858;48.716;9.648;2023-09-08T13:35:27;32.80;99.90
3684;DHT22;1858;48.716;9.648;2023-09-08T13:38:33;32.70;99.90
3684;DHT22;1858;48.716;9.648;2023-09-08T13:41:20;32.70;99.90
3684;DHT22;1858;48.716;9.648;2023-09-08T13:44:07;32.90;99.90
3684;DHT22;1858;48.716;9.648;2023-09-08T13:46:54;32.70;99.90
3684;DHT22;1858;48.716;9.648;2023-09-08T13:49:40;32.60;99.90
3684;DHT22;1858;48.716;9.648;2023-09-08T13:52:28;32.50;99.90
3684;DHT22;1858;48.716;9.648;2023-09-08T13:55:16;32.50;99.90
3684;DHT22;1858;48.716;9.648;2023-09-08T13:58:10;32.60;99.90
3684;DHT22;1858;48.716;9.648;2023-09-08T14:00:58;32.50;99.90
3684;DHT22;1858;48.716;9.648;2023-09-08T14:03:44;32.50;99.90
3684;DHT22;1858;48.716;9.648;2023-09-08T14:06:30;32.50;99.90
3684;DHT22;1858;48.716;9.648;2023-09-08T14:09:17;32.40;99.90
3684;DHT22;1858;48.716;9.648;2023-09-08T14:12:04;32.30;99.90
3684;DHT22;1858;48.716;9.648;2023-09-08T14:14:50;32.20;99.90
3684;DHT22;1858;48.716;9.648;2023-09-08T14:17:37;32.20;99.90
3684;DHT22;1858;48.716;9.648;2023-09-08T14:20:23;32.10;99.90
3684;DHT22;1858;48.716;9.648;2023-09-08T14:23:09;32.10;99.90
3684;DHT22;1858;48.716;9.648;2023-09-08T14:25:56;32.00;99.90
3684;DHT22;1858;48.716;9.648;2023-09-08T14:28:43;32.00;99.90
3684;DHT22;1858;48.716;9.648;2023-09-08T14:31:29;31.90;99.90
3684;DHT22;1858;48.716;9.648;2023-09-08T14:34:15;32.00;99.90
3684;DHT22;1858;48.716;9.648;2023-09-08T14:37:02;31.90;99.90
3684;DHT22;1858;48.716;9.648;2023-09-08T14:39:49;31.90;99.90
3684;DHT22;1858;48.716;9.648;2023-09-08T14:42:35;31.90;99.90
3684;DHT22;1858;48.716;9.648;2023-09-08T14:45:22;31.80;99.90
3684;DHT22;1858;48.716;9.648;2023-09-08T14:48:08;31.70;99.90
3684;DHT22;1858;48.716;9.648;2023-09-08T14:50:54;31.60;99.90
3684;DHT22;1858;48.716;9.648;2023-09-08T14:53:40;31.60;99.90
3684;DHT22;1858;48.716;9.648;2023-09-08T14:56:27;31.50;99.90
3684;DHT22;1858;48.716;9.648;2023-09-08T14:59:13;31.50;99.90
3684;DHT22;1858;48.716;9.648;2023-09-08T15:01:59;31.40;99.90
3684;DHT22;1858;48.716;9.648;2023-09-08T15:04:46;31.30;99.90
3684;DHT22;1858;48.716;9.648;2023-09-08T15:07:32;31.20;99.90
3684;DHT22;1858;48.716;9.648;2023-09-08T15:10:18;31.20;99.90
3684;DHT22;1858;48.716;9.648;2023-09-08T15:13:05;31.20;99.90
3684;DHT22;1858;48.716;9.648;2023-09-08T15:15:51;31.20;99.90
3684;DHT22;1858;48.716;9.648;2023-09-08T15:18:38;31.10;99.90
3684;DHT22;1858;48.716;9.648;2023-09-08T15:21:25;31.10;99.90
3684;DHT22;1858;48.716;9.648;2023-09-08T15:24:13;31.10;99.90
3684;DHT22;1858;48.716;9.648;2023-09-08T15:26:59;31.00;99.90
3684;DHT22;1858;48.716;9.648;2023-09-08T15:29:45;31.00;99.90
3684;DHT22;1858;48.716;9.648;2023-09-08T15:32:32;30.90;99.90
3684;DHT22;1858;48.716;9.648;2023-09-08T15:35:18;30.70;99.90
3684;DHT22;1858;48.716;9.648;2023-09-08T15:38:04;30.60;99.90
3684;DHT22;1858;48.716;9.648;2023-09-08T15:43:57;30.50;99.90
3684;DHT22;1858;48.716;9.648;2023-09-08T15:46:44;30.40;99.90
3684;DHT22;1858;48.716;9.648;2023-09-08T15:49:31;30.30;99.90
3684;DHT22;1858;48.716;9.648;2023-09-08T15:52:17;30.20;99.90
3684;DHT22;1858;48.716;9.648;2023-09-08T15:55:03;30.00;99.90
3684;DHT22;1858;48.716;9.648;2023-09-08T15:57:50;30.00;99.90
3684;DHT22;1858;48.716;9.648;2023-09-08T16:00:36;29.90;99.90
3684;DHT22;1858;48.716;9.648;2023-09-08T16:03:22;29.80;99.90
3684;DHT22;1858;48.716;9.648;2023-09-08T16:06:09;29.70;99.90
3684;DHT22;1858;48.716;9.648;2023-09-08T16:08:57;29.60;99.90
3684;DHT22;1858;48.716;9.648;2023-09-08T16:11:43;29.50;99.90
3684;DHT22;1858;48.716;9.648;2023-09-08T16:14:31;29.40;99.90
3684;DHT22;1858;48.716;9.648;2023-09-08T16:17:18;29.40;99.90
3684;DHT22;1858;48.716;9.648;2023-09-08T16:20:05;29.20;99.90
3684;DHT22;1858;48.716;9.648;2023-09-08T16:22:51;29.20;99.90
3684;DHT22;1858;48.716;9.648;2023-09-08T16:25:38;29.10;99.90
3684;DHT22;1858;48.716;9.648;2023-09-08T16:28:24;29.00;99.90
3684;DHT22;1858;48.716;9.648;2023-09-08T16:31:30;28.90;99.90
3684;DHT22;1858;48.716;9.648;2023-09-08T16:34:16;28.80;99.90
3684;DHT22;1858;48.716;9.648;2023-09-08T16:37:02;28.80;99.90
3684;DHT22;1858;48.716;9.648;2023-09-08T16:39:48;28.70;99.90
3684;DHT22;1858;48.716;9.648;2023-09-08T16:42:35;28.60;99.90
3684;DHT22;1858;48.716;9.648;2023-09-08T16:45:21;28.60;99.90
3684;DHT22;1858;48.716;9.648;2023-09-08T16:48:08;28.40;99.90
3684;DHT22;1858;48.716;9.648;2023-09-08T16:50:54;28.30;99.90
3684;DHT22;1858;48.716;9.648;2023-09-08T16:53:40;28.20;99.90
3684;DHT22;1858;48.716;9.648;2023-09-08T16:56:26;28.00;99.90
3684;DHT22;1858;48.716;9.648;2023-09-08T16:59:13;28.00;99.90
3684;DHT22;1858;48.716;9.648;2023-09-08T17:01:59;27.90;99.90
3684;DHT22;1858;48.716;9.648;2023-09-08T17:04:47;27.80;99.90
3684;DHT22;1858;48.716;9.648;2023-09-08T17:07:33;27.70;99.90
3684;DHT22;1858;48.716;9.648;2023-09-08T17:10:19;27.60;99.90
3684;DHT22;1858;48.716;9.648;2023-09-08T17:13:06;27.60;99.90
3684;DHT22;1858;48.716;9.648;2023-09-08T17:15:52;27.40;99.90
3684;DHT22;1858;48.716;9.648;2023-09-08T17:18:58;27.20;99.90
3684;DHT22;1858;48.716;9.648;2023-09-08T17:21:44;27.20;1.00
3684;DHT22;1858;48.716;9.648;2023-09-08T17:24:31;27.00;1.00
3684;DHT22;1858;48.716;9.648;2023-09-08T17:27:18;26.90;1.00
3684;DHT22;1858;48.716;9.648;2023-09-08T17:30:05;26.80;1.00
3684;DHT22;1858;48.716;9.648;2023-09-08T17:32:52;26.70;1.00
3684;DHT22;1858;48.716;9.648;2023-09-08T17:35:39;26.60;1.00
3684;DHT22;1858;48.716;9.648;2023-09-08T17:38:25;26.50;1.00
3684;DHT22;1858;48.716;9.648;2023-09-08T17:41:12;26.50;1.00
3684;DHT22;1858;48.716;9.648;2023-09-08T17:43:59;26.50;1.00
3684;DHT22;1858;48.716;9.648;2023-09-08T17:46:45;26.30;1.00
3684;DHT22;1858;48.716;9.648;2023-09-08T17:49:31;26.10;1.00
3684;DHT22;1858;48.716;9.648;2023-09-08T17:52:19;26.00;1.00
3684;DHT22;1858;48.716;9.648;2023-09-08T17:55:06;25.90;1.00
3684;DHT22;1858;48.716;9.648;2023-09-08T17:57:52;25.80;1.00
3684;DHT22;1858;48.716;9.648;2023-09-08T18:00:39;25.70;1.00
3684;DHT22;1858;48.716;9.648;2023-09-08T18:03:27;25.60;1.00
3684;DHT22;1858;48.716;9.648;2023-09-08T18:06:14;25.50;1.00
3684;DHT22;1858;48.716;9.648;2023-09-08T18:09:01;25.50;1.00
3684;DHT22;1858;48.716;9.648;2023-09-08T18:11:47;25.40;1.00
3684;DHT22;1858;48.716;9.648;2023-09-08T18:14:34;25.30;1.00
3684;DHT22;1858;48.716;9.648;2023-09-08T18:17:21;25.20;1.00
3684;DHT22;1858;48.716;9.648;2023-09-08T18:20:07;25.20;1.00
3684;DHT22;1858;48.716;9.648;2023-09-08T18:22:54;25.10;1.00
3684;DHT22;1858;48.716;9.648;2023-09-08T18:25:40;25.10;1.00
3684;DHT22;1858;48.716;9.648;2023-09-08T18:28:26;25.00;1.00
3684;DHT22;1858;48.716;9.648;2023-09-08T18:31:12;24.90;1.00
3684;DHT22;1858;48.716;9.648;2023-09-08T18:33:59;24.90;1.00
3684;DHT22;1858;48.716;9.648;2023-09-08T18:36:45;24.90;1.00